Strona główna
METAR-TAF:

METAR-TAF

Lotnisko :

Port lotniczy Tarakan-Juwata

Tarakan, Indonezja

Szerokość geograficzna: 03-19-36N, Długość geograficzna: 117-33-56E, wysokość: 6 m

Aktualna obserwacja pogody

Raport powstał 52 minut temu, godzina 13:00 UTC
Wiatr 4 kt od wschód
Temperatura 28°C
Wilgotność 79%
Ciśnienie 1010 hPa
Widzialność: 8000 m
Mało chmury na wysokości 1500 ft

METAR: WAQQ 211300Z 09004KT 8000 FEW015 28/24 Q1010

czas: 20:52 (13:52 UTC)

Prognoza

Raport powstał 8 godziny i 52 minut temu, godzina 05:00 UTC
Prognoza ważna od 21 godzina 06 UTC do 21 godzina 18 UTC
Wiatr 4 kt od północno-północny zachód
Widzialność: 6000 m
Przerywane chmury na wysokości 1500 ft
silny deszcz
Stopniowe zmiany
od 21 godzina 06 UTC do 21 godzina 09 UTC
Wiatr 9 kt od wschód
Widzialność 10 km lub więcej
Rozproszone chmury na wysokości 1500 ft

TAF: WAQQ 210500Z 2106/2118 34004KT 6000 +RA BKN015 BECMG 2106/2109 08009KT 9999 SCT015

Obserwacja i prognoza pogody dla ponad 4000 lotnisk (raport METAR i TAF).

Dostępne stacje oznaczono żółtymi i czerwonymi punktami na mapie.

Najedź kursorem aby zobaczyć nazwę stacji.

Kliknij aby zobaczyć obserwacje i prognozy pogody.

Aby zmienić mapę: kliknij na zielony przycisk z czarnym krzyżykiem, aby powiększyć; na zielony przycisk z myślnikiem, aby pomniejszyć; na zielone strzałki, aby przejść do map sąsiednich.


METAR-TAF: